sensor_id;sensor_type;location;lat;lon;timestamp;P1;durP1;ratioP1;P2;durP2;ratioP2
29044;SDS011;16133;49.486;12.176;2022-11-15T00:00:49;50.45;;;20.90;;
29044;SDS011;16133;49.486;12.176;2022-11-15T00:03:15;44.92;;;19.63;;
29044;SDS011;16133;49.486;12.176;2022-11-15T00:05:42;40.30;;;19.25;;
29044;SDS011;16133;49.486;12.176;2022-11-15T00:08:07;40.97;;;20.05;;
29044;SDS011;16133;49.486;12.176;2022-11-15T00:10:33;46.45;;;19.15;;
29044;SDS011;16133;49.486;12.176;2022-11-15T00:12:58;39.47;;;17.52;;
29044;SDS011;16133;49.486;12.176;2022-11-15T00:15:23;39.08;;;17.58;;
29044;SDS011;16133;49.486;12.176;2022-11-15T00:17:49;36.75;;;17.48;;
29044;SDS011;16133;49.486;12.176;2022-11-15T00:20:15;34.13;;;16.35;;
29044;SDS011;16133;49.486;12.176;2022-11-15T00:22:41;34.40;;;15.88;;
29044;SDS011;16133;49.486;12.176;2022-11-15T00:25:07;32.75;;;15.18;;
29044;SDS011;16133;49.486;12.176;2022-11-15T00:27:33;32.70;;;15.48;;
29044;SDS011;16133;49.486;12.176;2022-11-15T00:29:58;35.35;;;15.50;;
29044;SDS011;16133;49.486;12.176;2022-11-15T00:32:23;41.67;;;16.63;;
29044;SDS011;16133;49.486;12.176;2022-11-15T00:34:49;41.97;;;16.88;;
29044;SDS011;16133;49.486;12.176;2022-11-15T00:37:14;36.55;;;16.90;;
29044;SDS011;16133;49.486;12.176;2022-11-15T00:39:39;36.25;;;16.13;;
29044;SDS011;16133;49.486;12.176;2022-11-15T00:42:04;35.10;;;16.38;;
29044;SDS011;16133;49.486;12.176;2022-11-15T00:44:30;36.72;;;15.00;;
29044;SDS011;16133;49.486;12.176;2022-11-15T00:46:55;35.15;;;16.33;;
29044;SDS011;16133;49.486;12.176;2022-11-15T00:49:20;39.25;;;15.88;;
29044;SDS011;16133;49.486;12.176;2022-11-15T00:51:46;34.47;;;16.60;;
29044;SDS011;16133;49.486;12.176;2022-11-15T00:54:11;39.90;;;15.88;;
29044;SDS011;16133;49.486;12.176;2022-11-15T00:56:36;36.90;;;17.05;;
29044;SDS011;16133;49.486;12.176;2022-11-15T00:59:01;41.83;;;17.90;;
29044;SDS011;16133;49.486;12.176;2022-11-15T01:01:27;46.78;;;18.17;;
29044;SDS011;16133;49.486;12.176;2022-11-15T01:03:52;39.22;;;16.60;;
29044;SDS011;16133;49.486;12.176;2022-11-15T01:06:17;32.28;;;15.38;;
29044;SDS011;16133;49.486;12.176;2022-11-15T01:08:43;35.95;;;16.35;;
29044;SDS011;16133;49.486;12.176;2022-11-15T01:11:10;34.35;;;15.70;;
29044;SDS011;16133;49.486;12.176;2022-11-15T01:13:37;35.75;;;15.30;;
29044;SDS011;16133;49.486;12.176;2022-11-15T01:16:10;45.10;;;16.73;;
29044;SDS011;16133;49.486;12.176;2022-11-15T01:18:38;37.85;;;17.27;;
29044;SDS011;16133;49.486;12.176;2022-11-15T01:21:04;32.28;;;15.32;;
29044;SDS011;16133;49.486;12.176;2022-11-15T01:23:31;41.97;;;16.90;;
29044;SDS011;16133;49.486;12.176;2022-11-15T01:26:00;40.30;;;15.77;;
29044;SDS011;16133;49.486;12.176;2022-11-15T01:28:29;41.17;;;16.55;;
29044;SDS011;16133;49.486;12.176;2022-11-15T01:30:58;44.42;;;17.40;;
29044;SDS011;16133;49.486;12.176;2022-11-15T01:33:25;40.92;;;17.50;;
29044;SDS011;16133;49.486;12.176;2022-11-15T01:35:50;44.83;;;17.05;;
29044;SDS011;16133;49.486;12.176;2022-11-15T01:38:15;35.58;;;15.23;;
29044;SDS011;16133;49.486;12.176;2022-11-15T01:40:41;36.25;;;16.88;;
29044;SDS011;16133;49.486;12.176;2022-11-15T01:43:26;33.88;;;15.60;;
29044;SDS011;16133;49.486;12.176;2022-11-15T01:46:08;33.13;;;14.85;;
29044;SDS011;16133;49.486;12.176;2022-11-15T01:48:48;29.40;;;14.55;;
29044;SDS011;16133;49.486;12.176;2022-11-15T01:51:17;35.55;;;15.35;;
29044;SDS011;16133;49.486;12.176;2022-11-15T01:53:45;32.47;;;14.98;;
29044;SDS011;16133;49.486;12.176;2022-11-15T01:56:16;33.63;;;15.43;;
29044;SDS011;16133;49.486;12.176;2022-11-15T01:58:45;34.35;;;16.25;;
29044;SDS011;16133;49.486;12.176;2022-11-15T02:01:11;32.53;;;15.65;;
29044;SDS011;16133;49.486;12.176;2022-11-15T02:03:39;31.55;;;16.08;;
29044;SDS011;16133;49.486;12.176;2022-11-15T02:06:11;33.75;;;14.45;;
29044;SDS011;16133;49.486;12.176;2022-11-15T02:08:37;35.05;;;15.80;;
29044;SDS011;16133;49.486;12.176;2022-11-15T02:11:04;36.78;;;15.63;;
29044;SDS011;16133;49.486;12.176;2022-11-15T02:13:32;39.33;;;16.10;;
29044;SDS011;16133;49.486;12.176;2022-11-15T02:16:10;35.78;;;15.85;;
29044;SDS011;16133;49.486;12.176;2022-11-15T02:18:55;29.65;;;15.15;;
29044;SDS011;16133;49.486;12.176;2022-11-15T02:32:50;27.52;;;12.88;;
29044;SDS011;16133;49.486;12.176;2022-11-15T02:38:01;24.08;;;12.48;;
29044;SDS011;16133;49.486;12.176;2022-11-15T02:43:18;28.77;;;13.23;;
29044;SDS011;16133;49.486;12.176;2022-11-15T02:46:16;26.85;;;12.45;;
29044;SDS011;16133;49.486;12.176;2022-11-15T02:48:47;30.52;;;13.57;;
29044;SDS011;16133;49.486;12.176;2022-11-15T02:51:13;26.98;;;12.77;;
29044;SDS011;16133;49.486;12.176;2022-11-15T02:53:40;28.98;;;14.18;;
29044;SDS011;16133;49.486;12.176;2022-11-15T02:56:07;26.08;;;12.68;;
29044;SDS011;16133;49.486;12.176;2022-11-15T02:59:18;26.05;;;12.85;;
29044;SDS011;16133;49.486;12.176;2022-11-15T03:04:23;26.13;;;13.88;;
29044;SDS011;16133;49.486;12.176;2022-11-15T03:06:57;26.33;;;13.23;;
29044;SDS011;16133;49.486;12.176;2022-11-15T03:12:06;31.00;;;15.00;;
29044;SDS011;16133;49.486;12.176;2022-11-15T03:14:39;26.10;;;13.88;;
29044;SDS011;16133;49.486;12.176;2022-11-15T03:17:23;35.67;;;14.35;;
29044;SDS011;16133;49.486;12.176;2022-11-15T03:19:54;38.00;;;15.27;;
29044;SDS011;16133;49.486;12.176;2022-11-15T03:22:23;35.47;;;15.07;;
29044;SDS011;16133;49.486;12.176;2022-11-15T03:24:57;34.53;;;14.65;;
29044;SDS011;16133;49.486;12.176;2022-11-15T03:27:28;41.42;;;16.20;;
29044;SDS011;16133;49.486;12.176;2022-11-15T03:29:59;41.20;;;16.95;;
29044;SDS011;16133;49.486;12.176;2022-11-15T03:32:29;34.38;;;13.90;;
29044;SDS011;16133;49.486;12.176;2022-11-15T03:35:09;38.72;;;15.82;;
29044;SDS011;16133;49.486;12.176;2022-11-15T03:37:59;34.47;;;14.73;;
29044;SDS011;16133;49.486;12.176;2022-11-15T03:40:36;38.33;;;15.73;;
29044;SDS011;16133;49.486;12.176;2022-11-15T03:45:41;37.40;;;15.02;;
29044;SDS011;16133;49.486;12.176;2022-11-15T03:48:13;38.88;;;15.18;;
29044;SDS011;16133;49.486;12.176;2022-11-15T03:50:42;39.65;;;16.00;;
29044;SDS011;16133;49.486;12.176;2022-11-15T03:53:08;34.33;;;15.88;;
29044;SDS011;16133;49.486;12.176;2022-11-15T03:55:34;34.83;;;14.93;;
29044;SDS011;16133;49.486;12.176;2022-11-15T03:57:59;33.22;;;15.38;;
29044;SDS011;16133;49.486;12.176;2022-11-15T04:00:26;42.65;;;16.27;;
29044;SDS011;16133;49.486;12.176;2022-11-15T04:02:51;38.28;;;15.10;;
29044;SDS011;16133;49.486;12.176;2022-11-15T04:05:17;34.25;;;14.13;;
29044;SDS011;16133;49.486;12.176;2022-11-15T04:07:42;34.28;;;15.55;;
29044;SDS011;16133;49.486;12.176;2022-11-15T04:10:08;34.95;;;14.75;;
29044;SDS011;16133;49.486;12.176;2022-11-15T04:12:36;34.10;;;13.80;;
29044;SDS011;16133;49.486;12.176;2022-11-15T04:15:12;30.73;;;13.02;;
29044;SDS011;16133;49.486;12.176;2022-11-15T04:17:41;38.65;;;14.98;;
29044;SDS011;16133;49.486;12.176;2022-11-15T04:22:57;38.70;;;14.50;;
29044;SDS011;16133;49.486;12.176;2022-11-15T04:25:42;38.13;;;15.85;;
29044;SDS011;16133;49.486;12.176;2022-11-15T04:28:08;31.08;;;14.05;;
29044;SDS011;16133;49.486;12.176;2022-11-15T04:30:34;28.33;;;13.73;;
29044;SDS011;16133;49.486;12.176;2022-11-15T04:32:59;29.35;;;13.25;;
29044;SDS011;16133;49.486;12.176;2022-11-15T04:35:25;23.52;;;12.13;;
29044;SDS011;16133;49.486;12.176;2022-11-15T04:37:50;27.73;;;12.13;;
29044;SDS011;16133;49.486;12.176;2022-11-15T04:40:16;30.85;;;13.07;;
29044;SDS011;16133;49.486;12.176;2022-11-15T04:42:41;30.55;;;13.10;;
29044;SDS011;16133;49.486;12.176;2022-11-15T04:45:10;29.42;;;13.93;;
29044;SDS011;16133;49.486;12.176;2022-11-15T04:47:35;32.75;;;13.90;;
29044;SDS011;16133;49.486;12.176;2022-11-15T04:50:01;32.80;;;14.50;;
29044;SDS011;16133;49.486;12.176;2022-11-15T04:52:26;34.00;;;15.50;;
29044;SDS011;16133;49.486;12.176;2022-11-15T04:54:52;35.47;;;14.82;;
29044;SDS011;16133;49.486;12.176;2022-11-15T04:57:17;27.70;;;12.48;;
29044;SDS011;16133;49.486;12.176;2022-11-15T04:59:43;31.20;;;13.48;;
29044;SDS011;16133;49.486;12.176;2022-11-15T05:02:08;28.65;;;13.23;;
29044;SDS011;16133;49.486;12.176;2022-11-15T05:04:33;36.05;;;14.48;;
29044;SDS011;16133;49.486;12.176;2022-11-15T05:06:59;34.10;;;14.40;;
29044;SDS011;16133;49.486;12.176;2022-11-15T05:09:24;27.75;;;12.45;;
29044;SDS011;16133;49.486;12.176;2022-11-15T05:11:49;24.08;;;12.00;;
29044;SDS011;16133;49.486;12.176;2022-11-15T05:14:15;26.85;;;12.10;;
29044;SDS011;16133;49.486;12.176;2022-11-15T05:16:40;23.48;;;12.45;;
29044;SDS011;16133;49.486;12.176;2022-11-15T05:19:06;21.75;;;10.50;;
29044;SDS011;16133;49.486;12.176;2022-11-15T05:21:32;33.08;;;13.98;;
29044;SDS011;16133;49.486;12.176;2022-11-15T05:23:58;26.63;;;12.80;;
29044;SDS011;16133;49.486;12.176;2022-11-15T05:26:25;25.25;;;12.15;;
29044;SDS011;16133;49.486;12.176;2022-11-15T05:28:54;26.05;;;12.07;;
29044;SDS011;16133;49.486;12.176;2022-11-15T05:31:20;25.02;;;11.93;;
29044;SDS011;16133;49.486;12.176;2022-11-15T05:33:46;25.77;;;12.15;;
29044;SDS011;16133;49.486;12.176;2022-11-15T05:36:29;28.58;;;12.43;;
29044;SDS011;16133;49.486;12.176;2022-11-15T05:38:59;31.83;;;12.73;;
29044;SDS011;16133;49.486;12.176;2022-11-15T05:41:26;28.50;;;13.50;;
29044;SDS011;16133;49.486;12.176;2022-11-15T05:44:16;33.90;;;14.82;;
29044;SDS011;16133;49.486;12.176;2022-11-15T05:46:44;34.17;;;15.50;;
29044;SDS011;16133;49.486;12.176;2022-11-15T05:49:11;38.05;;;15.68;;
29044;SDS011;16133;49.486;12.176;2022-11-15T05:51:39;38.10;;;16.40;;
29044;SDS011;16133;49.486;12.176;2022-11-15T05:54:08;42.97;;;16.70;;
29044;SDS011;16133;49.486;12.176;2022-11-15T05:56:34;41.50;;;16.40;;
29044;SDS011;16133;49.486;12.176;2022-11-15T05:59:00;40.70;;;16.38;;
29044;SDS011;16133;49.486;12.176;2022-11-15T06:01:26;39.42;;;16.15;;
29044;SDS011;16133;49.486;12.176;2022-11-15T06:03:52;38.13;;;16.67;;
29044;SDS011;16133;49.486;12.176;2022-11-15T06:06:17;43.72;;;17.95;;
29044;SDS011;16133;49.486;12.176;2022-11-15T06:08:42;40.03;;;18.15;;
29044;SDS011;16133;49.486;12.176;2022-11-15T06:11:08;42.42;;;17.67;;
29044;SDS011;16133;49.486;12.176;2022-11-15T06:13:33;39.30;;;17.10;;
29044;SDS011;16133;49.486;12.176;2022-11-15T06:15:59;42.30;;;17.42;;
29044;SDS011;16133;49.486;12.176;2022-11-15T06:18:25;35.15;;;15.85;;
29044;SDS011;16133;49.486;12.176;2022-11-15T06:20:50;36.40;;;14.85;;
29044;SDS011;16133;49.486;12.176;2022-11-15T06:23:15;33.70;;;15.38;;
29044;SDS011;16133;49.486;12.176;2022-11-15T06:25:41;33.40;;;16.00;;
29044;SDS011;16133;49.486;12.176;2022-11-15T06:28:06;31.17;;;15.18;;
29044;SDS011;16133;49.486;12.176;2022-11-15T06:30:32;29.35;;;13.88;;
29044;SDS011;16133;49.486;12.176;2022-11-15T06:33:04;29.50;;;14.25;;
29044;SDS011;16133;49.486;12.176;2022-11-15T06:35:30;31.67;;;15.10;;
29044;SDS011;16133;49.486;12.176;2022-11-15T06:38:03;37.03;;;16.55;;
29044;SDS011;16133;49.486;12.176;2022-11-15T06:40:29;43.58;;;17.85;;
29044;SDS011;16133;49.486;12.176;2022-11-15T06:42:58;37.75;;;17.35;;
29044;SDS011;16133;49.486;12.176;2022-11-15T06:45:24;34.10;;;16.30;;
29044;SDS011;16133;49.486;12.176;2022-11-15T06:47:50;33.95;;;14.93;;
29044;SDS011;16133;49.486;12.176;2022-11-15T06:50:15;34.30;;;14.77;;
29044;SDS011;16133;49.486;12.176;2022-11-15T06:52:41;37.88;;;17.00;;
29044;SDS011;16133;49.486;12.176;2022-11-15T06:55:06;31.88;;;15.15;;
29044;SDS011;16133;49.486;12.176;2022-11-15T06:57:33;31.45;;;15.18;;
29044;SDS011;16133;49.486;12.176;2022-11-15T06:59:58;31.45;;;15.65;;
29044;SDS011;16133;49.486;12.176;2022-11-15T07:02:23;33.25;;;16.77;;
29044;SDS011;16133;49.486;12.176;2022-11-15T07:04:49;33.92;;;15.85;;
29044;SDS011;16133;49.486;12.176;2022-11-15T07:07:14;35.97;;;15.48;;
29044;SDS011;16133;49.486;12.176;2022-11-15T07:09:39;32.78;;;16.20;;
29044;SDS011;16133;49.486;12.176;2022-11-15T07:12:05;32.88;;;15.27;;
29044;SDS011;16133;49.486;12.176;2022-11-15T07:14:30;30.20;;;14.73;;
29044;SDS011;16133;49.486;12.176;2022-11-15T07:16:56;32.22;;;16.02;;
29044;SDS011;16133;49.486;12.176;2022-11-15T07:19:21;28.65;;;15.32;;
29044;SDS011;16133;49.486;12.176;2022-11-15T07:21:46;32.13;;;14.80;;
29044;SDS011;16133;49.486;12.176;2022-11-15T07:24:12;35.90;;;15.48;;
29044;SDS011;16133;49.486;12.176;2022-11-15T07:26:37;33.20;;;14.90;;
29044;SDS011;16133;49.486;12.176;2022-11-15T07:29:03;31.27;;;14.57;;
29044;SDS011;16133;49.486;12.176;2022-11-15T07:31:29;30.00;;;14.40;;
29044;SDS011;16133;49.486;12.176;2022-11-15T07:33:55;31.95;;;14.13;;
29044;SDS011;16133;49.486;12.176;2022-11-15T07:36:20;28.25;;;12.75;;
29044;SDS011;16133;49.486;12.176;2022-11-15T07:38:45;24.67;;;12.32;;
29044;SDS011;16133;49.486;12.176;2022-11-15T07:41:11;30.23;;;13.75;;
29044;SDS011;16133;49.486;12.176;2022-11-15T07:43:36;36.20;;;15.95;;
29044;SDS011;16133;49.486;12.176;2022-11-15T07:46:05;37.97;;;15.40;;
29044;SDS011;16133;49.486;12.176;2022-11-15T07:48:34;30.40;;;15.02;;
29044;SDS011;16133;49.486;12.176;2022-11-15T07:51:05;24.38;;;11.45;;
29044;SDS011;16133;49.486;12.176;2022-11-15T07:53:31;25.00;;;11.93;;
29044;SDS011;16133;49.486;12.176;2022-11-15T07:55:56;23.48;;;12.27;;
29044;SDS011;16133;49.486;12.176;2022-11-15T07:58:22;25.20;;;12.55;;
29044;SDS011;16133;49.486;12.176;2022-11-15T08:00:47;24.17;;;12.45;;
29044;SDS011;16133;49.486;12.176;2022-11-15T08:03:14;28.23;;;12.40;;
29044;SDS011;16133;49.486;12.176;2022-11-15T08:05:41;27.58;;;13.43;;
29044;SDS011;16133;49.486;12.176;2022-11-15T08:08:07;29.55;;;13.57;;
29044;SDS011;16133;49.486;12.176;2022-11-15T08:10:34;26.65;;;14.15;;
29044;SDS011;16133;49.486;12.176;2022-11-15T08:13:04;27.88;;;13.45;;
29044;SDS011;16133;49.486;12.176;2022-11-15T08:15:31;24.67;;;12.48;;
29044;SDS011;16133;49.486;12.176;2022-11-15T08:17:58;24.77;;;12.82;;
29044;SDS011;16133;49.486;12.176;2022-11-15T08:20:25;26.98;;;13.57;;
29044;SDS011;16133;49.486;12.176;2022-11-15T08:22:54;30.73;;;13.65;;
29044;SDS011;16133;49.486;12.176;2022-11-15T08:25:20;26.38;;;13.18;;
29044;SDS011;16133;49.486;12.176;2022-11-15T08:27:46;30.50;;;13.70;;
29044;SDS011;16133;49.486;12.176;2022-11-15T08:30:11;24.42;;;12.82;;
29044;SDS011;16133;49.486;12.176;2022-11-15T08:32:37;28.27;;;13.48;;
29044;SDS011;16133;49.486;12.176;2022-11-15T08:35:02;27.10;;;12.95;;
29044;SDS011;16133;49.486;12.176;2022-11-15T08:37:28;26.42;;;12.98;;
29044;SDS011;16133;49.486;12.176;2022-11-15T08:39:53;54.90;;;18.55;;
29044;SDS011;16133;49.486;12.176;2022-11-15T08:42:19;25.77;;;12.90;;
29044;SDS011;16133;49.486;12.176;2022-11-15T08:44:44;25.92;;;13.07;;
29044;SDS011;16133;49.486;12.176;2022-11-15T08:47:12;25.17;;;12.35;;
29044;SDS011;16133;49.486;12.176;2022-11-15T08:49:38;23.58;;;11.88;;
29044;SDS011;16133;49.486;12.176;2022-11-15T08:52:04;26.45;;;12.02;;
29044;SDS011;16133;49.486;12.176;2022-11-15T08:54:29;22.80;;;11.10;;
29044;SDS011;16133;49.486;12.176;2022-11-15T08:56:55;23.23;;;11.55;;
29044;SDS011;16133;49.486;12.176;2022-11-15T08:59:20;23.27;;;11.55;;
29044;SDS011;16133;49.486;12.176;2022-11-15T09:01:46;25.25;;;11.93;;
29044;SDS011;16133;49.486;12.176;2022-11-15T09:04:11;21.58;;;11.70;;
29044;SDS011;16133;49.486;12.176;2022-11-15T09:06:37;27.60;;;13.95;;
29044;SDS011;16133;49.486;12.176;2022-11-15T09:09:02;26.33;;;13.10;;
29044;SDS011;16133;49.486;12.176;2022-11-15T09:11:28;27.45;;;13.23;;
29044;SDS011;16133;49.486;12.176;2022-11-15T09:13:53;30.65;;;13.82;;
29044;SDS011;16133;49.486;12.176;2022-11-15T09:16:19;32.28;;;15.23;;
29044;SDS011;16133;49.486;12.176;2022-11-15T09:18:44;36.40;;;15.68;;
29044;SDS011;16133;49.486;12.176;2022-11-15T09:21:10;40.75;;;17.13;;
29044;SDS011;16133;49.486;12.176;2022-11-15T09:23:35;36.17;;;17.02;;
29044;SDS011;16133;49.486;12.176;2022-11-15T09:26:02;39.97;;;16.55;;
29044;SDS011;16133;49.486;12.176;2022-11-15T09:28:29;38.72;;;15.57;;
29044;SDS011;16133;49.486;12.176;2022-11-15T09:30:58;32.72;;;14.82;;
29044;SDS011;16133;49.486;12.176;2022-11-15T09:33:25;34.42;;;15.57;;
29044;SDS011;16133;49.486;12.176;2022-11-15T09:35:51;36.00;;;15.40;;
29044;SDS011;16133;49.486;12.176;2022-11-15T09:38:16;34.53;;;15.60;;
29044;SDS011;16133;49.486;12.176;2022-11-15T09:40:42;38.90;;;15.73;;
29044;SDS011;16133;49.486;12.176;2022-11-15T09:43:13;39.67;;;16.40;;
29044;SDS011;16133;49.486;12.176;2022-11-15T09:51:18;30.70;;;15.98;;
29044;SDS011;16133;49.486;12.176;2022-11-15T09:56:37;44.78;;;21.17;;
29044;SDS011;16133;49.486;12.176;2022-11-15T10:04:59;44.55;;;18.92;;
29044;SDS011;16133;49.486;12.176;2022-11-15T10:07:32;39.08;;;15.85;;
29044;SDS011;16133;49.486;12.176;2022-11-15T10:12:46;41.20;;;18.33;;
29044;SDS011;16133;49.486;12.176;2022-11-15T10:15:15;37.03;;;17.50;;
29044;SDS011;16133;49.486;12.176;2022-11-15T10:18:05;37.42;;;17.30;;
29044;SDS011;16133;49.486;12.176;2022-11-15T10:20:41;33.88;;;16.10;;
29044;SDS011;16133;49.486;12.176;2022-11-15T10:23:13;34.47;;;16.48;;
29044;SDS011;16133;49.486;12.176;2022-11-15T10:25:40;36.83;;;16.10;;
29044;SDS011;16133;49.486;12.176;2022-11-15T10:30:58;43.50;;;19.00;;
29044;SDS011;16133;49.486;12.176;2022-11-15T10:46:47;36.95;;;16.50;;
29044;SDS011;16133;49.486;12.176;2022-11-15T10:49:29;38.30;;;15.97;;
29044;SDS011;16133;49.486;12.176;2022-11-15T10:54:41;38.78;;;16.52;;
29044;SDS011;16133;49.486;12.176;2022-11-15T10:57:16;32.22;;;15.75;;
29044;SDS011;16133;49.486;12.176;2022-11-15T10:59:48;35.78;;;17.25;;
29044;SDS011;16133;49.486;12.176;2022-11-15T11:08:05;37.30;;;17.10;;
29044;SDS011;16133;49.486;12.176;2022-11-15T11:10:55;37.03;;;16.40;;
29044;SDS011;16133;49.486;12.176;2022-11-15T11:13:24;59.90;;;23.00;;
29044;SDS011;16133;49.486;12.176;2022-11-15T11:15:53;40.38;;;17.13;;
29044;SDS011;16133;49.486;12.176;2022-11-15T11:18:23;35.85;;;16.63;;
29044;SDS011;16133;49.486;12.176;2022-11-15T11:20:58;32.03;;;15.00;;
29044;SDS011;16133;49.486;12.176;2022-11-15T11:26:29;28.30;;;13.70;;
29044;SDS011;16133;49.486;12.176;2022-11-15T11:31:47;27.15;;;11.90;;
29044;SDS011;16133;49.486;12.176;2022-11-15T11:39:55;18.27;;;9.13;;
29044;SDS011;16133;49.486;12.176;2022-11-15T11:47:59;20.67;;;9.43;;
29044;SDS011;16133;49.486;12.176;2022-11-15T11:50:26;19.20;;;9.82;;
29044;SDS011;16133;49.486;12.176;2022-11-15T12:00:27;18.73;;;8.65;;
29044;SDS011;16133;49.486;12.176;2022-11-15T12:03:12;15.57;;;7.68;;
29044;SDS011;16133;49.486;12.176;2022-11-15T12:05:46;15.98;;;7.60;;
29044;SDS011;16133;49.486;12.176;2022-11-15T12:08:56;18.20;;;8.82;;
29044;SDS011;16133;49.486;12.176;2022-11-15T12:11:28;15.80;;;7.78;;
29044;SDS011;16133;49.486;12.176;2022-11-15T12:14:10;15.63;;;7.70;;
29044;SDS011;16133;49.486;12.176;2022-11-15T12:16:54;15.98;;;8.48;;
29044;SDS011;16133;49.486;12.176;2022-11-15T12:19:20;25.10;;;10.50;;
29044;SDS011;16133;49.486;12.176;2022-11-15T12:24:42;14.73;;;7.28;;
29044;SDS011;16133;49.486;12.176;2022-11-15T12:27:35;13.45;;;7.45;;
29044;SDS011;16133;49.486;12.176;2022-11-15T12:30:15;14.98;;;7.72;;
29044;SDS011;16133;49.486;12.176;2022-11-15T12:32:57;17.17;;;7.80;;
29044;SDS011;16133;49.486;12.176;2022-11-15T12:35:25;16.65;;;7.72;;
29044;SDS011;16133;49.486;12.176;2022-11-15T12:38:05;14.25;;;7.28;;
29044;SDS011;16133;49.486;12.176;2022-11-15T12:40:39;15.73;;;7.50;;
29044;SDS011;16133;49.486;12.176;2022-11-15T12:43:49;12.00;;;6.80;;
29044;SDS011;16133;49.486;12.176;2022-11-15T12:51:08;16.75;;;6.63;;
29044;SDS011;16133;49.486;12.176;2022-11-15T12:53:34;12.75;;;6.95;;
29044;SDS011;16133;49.486;12.176;2022-11-15T13:01:06;11.13;;;5.82;;
29044;SDS011;16133;49.486;12.176;2022-11-15T13:03:32;10.63;;;5.88;;
29044;SDS011;16133;49.486;12.176;2022-11-15T13:05:59;8.45;;;5.13;;
29044;SDS011;16133;49.486;12.176;2022-11-15T13:09:01;12.15;;;5.65;;
29044;SDS011;16133;49.486;12.176;2022-11-15T13:17:02;11.55;;;5.53;;
29044;SDS011;16133;49.486;12.176;2022-11-15T13:19:37;10.90;;;6.10;;
29044;SDS011;16133;49.486;12.176;2022-11-15T13:22:04;10.15;;;5.82;;
29044;SDS011;16133;49.486;12.176;2022-11-15T13:24:52;12.73;;;7.22;;
29044;SDS011;16133;49.486;12.176;2022-11-15T13:27:18;17.23;;;7.05;;
29044;SDS011;16133;49.486;12.176;2022-11-15T13:29:44;11.40;;;5.57;;
29044;SDS011;16133;49.486;12.176;2022-11-15T13:32:11;8.55;;;4.82;;
29044;SDS011;16133;49.486;12.176;2022-11-15T13:34:38;11.45;;;5.72;;
29044;SDS011;16133;49.486;12.176;2022-11-15T13:37:32;10.50;;;6.47;;
29044;SDS011;16133;49.486;12.176;2022-11-15T13:40:09;10.13;;;4.85;;
29044;SDS011;16133;49.486;12.176;2022-11-15T13:42:43;8.05;;;4.90;;
29044;SDS011;16133;49.486;12.176;2022-11-15T13:45:11;8.43;;;4.55;;
29044;SDS011;16133;49.486;12.176;2022-11-15T13:47:39;10.73;;;5.32;;
29044;SDS011;16133;49.486;12.176;2022-11-15T13:50:05;9.50;;;5.50;;
29044;SDS011;16133;49.486;12.176;2022-11-15T13:52:32;10.27;;;5.10;;
29044;SDS011;16133;49.486;12.176;2022-11-15T13:55:02;10.88;;;5.85;;
29044;SDS011;16133;49.486;12.176;2022-11-15T14:00:04;10.50;;;5.70;;
29044;SDS011;16133;49.486;12.176;2022-11-15T14:02:47;11.38;;;5.40;;
29044;SDS011;16133;49.486;12.176;2022-11-15T14:08:04;9.05;;;4.80;;
29044;SDS011;16133;49.486;12.176;2022-11-15T14:10:48;9.23;;;4.85;;
29044;SDS011;16133;49.486;12.176;2022-11-15T14:13:31;15.27;;;5.95;;
29044;SDS011;16133;49.486;12.176;2022-11-15T14:16:16;9.88;;;5.35;;
29044;SDS011;16133;49.486;12.176;2022-11-15T14:18:48;10.73;;;5.80;;
29044;SDS011;16133;49.486;12.176;2022-11-15T14:21:15;14.68;;;6.55;;
29044;SDS011;16133;49.486;12.176;2022-11-15T14:23:41;16.42;;;8.98;;
29044;SDS011;16133;49.486;12.176;2022-11-15T14:26:11;21.13;;;8.73;;
29044;SDS011;16133;49.486;12.176;2022-11-15T14:28:52;13.45;;;7.53;;
29044;SDS011;16133;49.486;12.176;2022-11-15T14:31:17;16.65;;;8.75;;
29044;SDS011;16133;49.486;12.176;2022-11-15T14:33:44;16.90;;;8.52;;
29044;SDS011;16133;49.486;12.176;2022-11-15T14:36:17;14.88;;;7.93;;
29044;SDS011;16133;49.486;12.176;2022-11-15T14:38:45;14.38;;;7.32;;
29044;SDS011;16133;49.486;12.176;2022-11-15T14:41:18;13.73;;;7.22;;
29044;SDS011;16133;49.486;12.176;2022-11-15T14:43:44;13.63;;;7.30;;
29044;SDS011;16133;49.486;12.176;2022-11-15T14:46:09;33.15;;;14.77;;
29044;SDS011;16133;49.486;12.176;2022-11-15T14:48:35;25.83;;;12.40;;
29044;SDS011;16133;49.486;12.176;2022-11-15T14:51:01;28.02;;;14.13;;
29044;SDS011;16133;49.486;12.176;2022-11-15T14:53:26;31.83;;;15.30;;
29044;SDS011;16133;49.486;12.176;2022-11-15T14:55:52;38.20;;;18.10;;
29044;SDS011;16133;49.486;12.176;2022-11-15T14:58:18;41.67;;;19.40;;
29044;SDS011;16133;49.486;12.176;2022-11-15T15:00:43;33.42;;;16.77;;
29044;SDS011;16133;49.486;12.176;2022-11-15T15:03:08;27.80;;;14.02;;
29044;SDS011;16133;49.486;12.176;2022-11-15T15:05:36;23.30;;;11.98;;
29044;SDS011;16133;49.486;12.176;2022-11-15T15:08:02;23.35;;;11.55;;
29044;SDS011;16133;49.486;12.176;2022-11-15T15:10:31;28.50;;;11.05;;
29044;SDS011;16133;49.486;12.176;2022-11-15T15:12:59;17.60;;;8.52;;
29044;SDS011;16133;49.486;12.176;2022-11-15T15:15:26;15.48;;;7.45;;
29044;SDS011;16133;49.486;12.176;2022-11-15T15:17:56;13.27;;;6.45;;
29044;SDS011;16133;49.486;12.176;2022-11-15T15:20:21;12.50;;;6.72;;
29044;SDS011;16133;49.486;12.176;2022-11-15T15:22:47;13.48;;;6.57;;
29044;SDS011;16133;49.486;12.176;2022-11-15T15:25:23;14.65;;;8.23;;
29044;SDS011;16133;49.486;12.176;2022-11-15T15:27:52;14.40;;;7.03;;
29044;SDS011;16133;49.486;12.176;2022-11-15T15:30:18;17.05;;;8.85;;
29044;SDS011;16133;49.486;12.176;2022-11-15T15:32:45;17.35;;;9.00;;
29044;SDS011;16133;49.486;12.176;2022-11-15T15:35:14;18.25;;;9.30;;
29044;SDS011;16133;49.486;12.176;2022-11-15T15:37:40;18.35;;;8.82;;
29044;SDS011;16133;49.486;12.176;2022-11-15T15:40:11;16.60;;;8.52;;
29044;SDS011;16133;49.486;12.176;2022-11-15T15:42:39;19.27;;;9.80;;
29044;SDS011;16133;49.486;12.176;2022-11-15T15:45:05;18.30;;;9.82;;
29044;SDS011;16133;49.486;12.176;2022-11-15T15:47:30;22.70;;;11.43;;
29044;SDS011;16133;49.486;12.176;2022-11-15T15:49:56;32.33;;;14.18;;
29044;SDS011;16133;49.486;12.176;2022-11-15T15:52:21;45.10;;;18.75;;
29044;SDS011;16133;49.486;12.176;2022-11-15T15:54:47;49.17;;;22.92;;
29044;SDS011;16133;49.486;12.176;2022-11-15T15:57:12;63.33;;;24.90;;
29044;SDS011;16133;49.486;12.176;2022-11-15T15:59:39;43.20;;;19.98;;
29044;SDS011;16133;49.486;12.176;2022-11-15T16:02:04;37.70;;;18.48;;
29044;SDS011;16133;49.486;12.176;2022-11-15T16:04:30;52.17;;;21.38;;
29044;SDS011;16133;49.486;12.176;2022-11-15T16:06:59;50.08;;;24.92;;
29044;SDS011;16133;49.486;12.176;2022-11-15T16:09:25;78.82;;;38.15;;
29044;SDS011;16133;49.486;12.176;2022-11-15T16:12:09;63.38;;;31.83;;
29044;SDS011;16133;49.486;12.176;2022-11-15T16:14:35;52.15;;;25.88;;
29044;SDS011;16133;49.486;12.176;2022-11-15T16:17:00;46.97;;;20.50;;
29044;SDS011;16133;49.486;12.176;2022-11-15T16:19:26;26.00;;;12.88;;